Time;durP1;ratioP1;P1;durP2;ratioP2;P2;SDS_P1;SDS_P2;PMS_P1;PMS_P2;Temp;Humidity;BMP_temperature;BMP_pressure;BME280_temperature;BME280_humidity;BME280_pressure;Samples;Min_cycle;Max_cycle;Signal;HPM_P1;HPM_P2
2023/04/07 00:00:11;;;;;;;;;;;;;;;13.42;100.00;101296.75;5118888;28;19916;-54
2023/04/07 00:02:37;;;;;;;;;;;;;;;13.19;100.00;101303.31;5117861;28;19923;-55
2023/04/07 00:05:02;;;;;;;;;;;;;;;13.09;100.00;101303.69;5117646;28;19928;-57
2023/04/07 00:07:27;;;;;;;;;;;;;;;13.26;100.00;101301.47;5119138;28;19947;-53
2023/04/07 00:09:53;;;;;;;;;;;;;;;13.36;100.00;101301.06;5118451;28;19999;-55
2023/04/07 00:12:18;;;;;;;;;;;;;;;13.16;100.00;101299.16;5116262;28;19920;-55
2023/04/07 00:14:44;;;;;;;;;;;;;;;12.98;100.00;101307.78;5116457;28;19939;-53
2023/04/07 00:17:09;;;;;;;;;;;;;;;13.12;100.00;101313.19;5121215;28;19923;-55
2023/04/07 00:19:35;;;;;;;;;;;;;;;13.14;100.00;101305.75;5118593;28;19919;-54
2023/04/07 00:22:00;;;;;;;;;;;;;;;13.28;100.00;101303.97;5114279;28;19916;-56
2023/04/07 00:24:26;;;;;;;;;;;;;;;13.04;100.00;101293.53;5116758;28;19931;-57
2023/04/07 00:26:51;;;;;;;;;;;;;;;12.87;100.00;101301.13;5115612;28;19927;-52
2023/04/07 00:29:17;;;;;;;;;;;;;;;13.14;100.00;101303.91;5116770;28;19916;-58
2023/04/07 00:31:42;;;;;;;;;;;;;;;13.23;100.00;101299.19;5122793;28;19947;-55
2023/04/07 00:34:08;;;;;;;;;;;;;;;13.09;100.00;101297.47;5133923;28;20346;-54
2023/04/07 00:36:33;;;;;;;;;;;;;;;12.85;100.00;101302.31;5118083;28;19950;-56
2023/04/07 00:38:59;;;;;;;;;;;;;;;13.33;100.00;101296.94;5114866;28;19938;-55
2023/04/07 00:41:24;;;;;;;;;;;;;;;13.45;100.00;101301.75;5127272;27;19923;-55
2023/04/07 00:43:50;;;;;;;;;;;;;;;13.20;100.00;101294.22;5115139;28;19916;-54
2023/04/07 00:46:16;;;;;;;;;;;;;;;13.15;100.00;101294.00;5114276;28;19939;-57
2023/04/07 00:48:42;;;;;;;;;;;;;;;13.08;100.00;101291.28;5115656;28;19938;-53
2023/04/07 00:51:07;;;;;;;;;;;;;;;12.98;100.00;101302.41;5110067;28;19920;-55
2023/04/07 00:53:33;;;;;;;;;;;;;;;13.03;100.00;101296.41;5116796;28;19916;-53
2023/04/07 00:55:58;;;;;;;;;;;;;;;13.16;100.00;101290.28;5100016;28;19999;-56
2023/04/07 00:58:23;;;;;;;;;;;;;;;13.44;100.00;101290.16;5123959;28;19942;-54
2023/04/07 01:00:54;;;;;;;;;;;;;;;13.25;100.00;101297.13;5106208;28;19920;-56
2023/04/07 01:03:38;;;;;;;;;;;;;;;13.27;100.00;101297.75;5104783;28;19920;-56
2023/04/07 01:06:05;;;;;;;;;;;;;;;13.26;100.00;101296.09;5101705;28;19976;-54
2023/04/07 01:08:37;;;;;;;;;;;;;;;13.14;100.00;101297.69;5120962;28;19942;-51
2023/04/07 01:11:07;;;;;;;;;;;;;;;12.84;100.00;101296.16;5105033;28;19919;-52
2023/04/07 01:13:48;;;;;;;;;;;;;;;13.11;100.00;101293.56;5138726;27;19945;-55
2023/04/07 01:16:47;;;;;;;;;;;;;;;12.97;100.00;101292.69;5108363;28;19915;-55
2023/04/07 01:19:15;;;;;;;;;;;;;;;12.84;100.00;101295.31;5100610;28;20714;-59
2023/04/07 01:21:48;;;;;;;;;;;;;;;12.91;100.00;101291.63;5108705;28;19916;-54
2023/04/07 01:24:32;;;;;;;;;;;;;;;12.94;100.00;101295.78;5106656;28;19916;-55
2023/04/07 01:27:04;;;;;;;;;;;;;;;12.61;100.00;101294.59;5105170;28;20007;-52
2023/04/07 01:29:41;;;;;;;;;;;;;;;12.67;100.00;101295.63;5124173;28;20515;-54
2023/04/07 01:32:09;;;;;;;;;;;;;;;12.64;100.00;101289.84;5125191;28;19916;-50
2023/04/07 01:34:36;;;;;;;;;;;;;;;12.84;100.00;101296.16;5120664;28;19924;-51
2023/04/07 01:37:01;;;;;;;;;;;;;;;12.97;100.00;101299.91;5122322;28;19923;-55
2023/04/07 01:39:27;;;;;;;;;;;;;;;12.90;100.00;101302.56;5119974;28;19971;-55
2023/04/07 01:41:54;;;;;;;;;;;;;;;12.98;100.00;101302.41;5107840;28;19933;-53
2023/04/07 01:44:20;;;;;;;;;;;;;;;12.75;100.00;101305.38;5103944;28;19915;-54
2023/04/07 01:46:45;;;;;;;;;;;;;;;12.86;100.00;101312.03;5103714;28;19916;-56
2023/04/07 01:49:12;;;;;;;;;;;;;;;12.54;100.00;101311.66;5122134;28;19916;-53
2023/04/07 01:51:38;;;;;;;;;;;;;;;12.90;100.00;101310.59;5119974;28;19934;-55
2023/04/07 01:54:04;;;;;;;;;;;;;;;12.93;100.00;101315.59;5125099;28;20425;-56
2023/04/07 01:56:30;;;;;;;;;;;;;;;12.87;100.00;101313.69;5104188;28;19920;-52
2023/04/07 01:58:56;;;;;;;;;;;;;;;12.68;100.00;101318.75;5136256;27;19942;-55
2023/04/07 02:01:23;;;;;;;;;;;;;;;12.53;100.00;101307.31;5101759;28;19912;-54
2023/04/07 02:04:04;;;;;;;;;;;;;;;13.22;100.00;101312.81;5141210;27;19967;-53
2023/04/07 02:06:39;;;;;;;;;;;;;;;13.13;100.00;101314.84;5124648;28;19924;-55
2023/04/07 02:09:06;;;;;;;;;;;;;;;13.00;100.00;101316.44;5123169;28;19926;-54
2023/04/07 02:11:33;;;;;;;;;;;;;;;12.89;100.00;101311.63;5117736;28;19954;-51
2023/04/07 02:14:03;;;;;;;;;;;;;;;13.05;100.00;101313.19;5101120;28;19963;-53
2023/04/07 02:16:34;;;;;;;;;;;;;;;13.10;100.00;101315.22;5098679;28;19917;-54
2023/04/07 02:19:01;;;;;;;;;;;;;;;13.23;100.00;101312.63;5136381;27;19927;-55
2023/04/07 02:21:29;;;;;;;;;;;;;;;12.94;100.00;101317.25;5097769;28;19970;-53
2023/04/07 02:23:55;;;;;;;;;;;;;;;13.02;100.00;101324.28;5135215;27;19923;-54
2023/04/07 02:26:20;;;;;;;;;;;;;;;13.27;100.00;101313.84;5118118;28;19987;-51
2023/04/07 02:28:47;;;;;;;;;;;;;;;13.30;100.00;101316.13;5098134;28;19931;-55
2023/04/07 02:31:15;;;;;;;;;;;;;;;13.45;100.00;101317.88;5116895;28;19962;-56
2023/04/07 02:33:41;;;;;;;;;;;;;;;13.25;100.00;101323.13;5119868;28;19916;-54
2023/04/07 02:36:06;;;;;;;;;;;;;;;13.39;100.00;101313.28;5119238;28;19980;-55
2023/04/07 02:38:31;;;;;;;;;;;;;;;13.38;100.00;101316.97;5117790;28;19926;-54
2023/04/07 02:40:58;;;;;;;;;;;;;;;13.37;100.00;101316.16;5120110;28;19939;-57
2023/04/07 02:43:24;;;;;;;;;;;;;;;13.30;100.00;101316.13;5118899;28;19916;-56
2023/04/07 02:45:50;;;;;;;;;;;;;;;13.29;100.00;101321.72;5104141;28;19928;-55
2023/04/07 02:48:15;;;;;;;;;;;;;;;13.33;100.00;101315.72;5098152;28;19915;-56
2023/04/07 02:50:41;;;;;;;;;;;;;;;13.06;100.00;101320.19;5120611;28;19958;-54
2023/04/07 02:53:08;;;;;;;;;;;;;;;13.28;100.00;101323.56;5138175;27;19927;-54
2023/04/07 02:55:33;;;;;;;;;;;;;;;13.18;100.00;101323.13;5138781;27;19947;-56
2023/04/07 02:57:58;;;;;;;;;;;;;;;13.16;100.00;101325.19;5119515;28;19927;-57
2023/04/07 03:00:44;;;;;;;;;;;;;;;13.30;100.00;101321.50;5116309;28;19943;-54
2023/04/07 03:03:14;;;;;;;;;;;;;;;13.20;100.00;101321.06;5098812;28;19955;-55
2023/04/07 03:05:44;;;;;;;;;;;;;;;13.38;100.00;101322.34;5099733;28;19920;-57
2023/04/07 03:08:10;;;;;;;;;;;;;;;13.26;100.00;101316.72;5099035;28;19923;-55
2023/04/07 03:10:36;;;;;;;;;;;;;;;13.18;100.00;101325.81;5117193;28;19916;-57
2023/04/07 03:13:02;;;;;;;;;;;;;;;13.31;100.00;101319.66;5102727;28;19920;-55
2023/04/07 03:15:28;;;;;;;;;;;;;;;13.07;100.00;101321.00;5099902;28;19916;-54
2023/04/07 03:17:54;;;;;;;;;;;;;;;13.27;100.00;101327.28;5099597;28;19916;-54
2023/04/07 03:20:19;;;;;;;;;;;;;;;13.37;100.00;101326.06;5116167;28;19916;-55
2023/04/07 03:22:46;;;;;;;;;;;;;;;13.07;100.00;101321.00;5101413;28;19923;-56
2023/04/07 03:25:18;;;;;;;;;;;;;;;13.12;100.00;101321.22;5136703;27;19955;-55
2023/04/07 03:27:44;;;;;;;;;;;;;;;13.09;100.00;101321.63;5131609;27;19924;-56
2023/04/07 03:30:12;;;;;;;;;;;;;;;13.24;100.00;101319.63;5099273;28;19916;-57
2023/04/07 03:32:37;;;;;;;;;;;;;;;12.70;100.00;101326.63;5101432;28;19964;-54
2023/04/07 03:35:03;;;;;;;;;;;;;;;12.87;100.00;101327.09;5114451;28;19940;-55
2023/04/07 03:37:29;;;;;;;;;;;;;;;13.03;100.00;101326.78;5115404;28;19930;-55
2023/04/07 03:39:54;;;;;;;;;;;;;;;13.11;100.00;101327.63;5121581;28;19965;-57
2023/04/07 03:42:25;;;;;;;;;;;;;;;13.04;100.00;101328.44;5115272;28;19939;-57
2023/04/07 03:44:57;;;;;;;;;;;;;;;13.19;100.00;101324.78;5098564;28;19919;-55
2023/04/07 03:47:22;;;;;;;;;;;;;;;13.08;100.00;101318.13;5100865;28;19943;-56
2023/04/07 03:49:54;;;;;;;;;;;;;;;13.03;100.00;101324.09;5097352;28;19923;-54
2023/04/07 03:52:20;;;;;;;;;;;;;;;13.14;100.00;101320.00;5101364;28;19971;-53
2023/04/07 03:54:49;;;;;;;;;;;;;;;13.23;100.00;101326.03;5134475;27;19927;-53
2023/04/07 03:57:17;;;;;;;;;;;;;;;13.30;100.00;101326.06;5100930;28;20220;-52
2023/04/07 03:59:49;;;;;;;;;;;;;;;13.29;100.00;101325.22;5099481;28;19970;-53
2023/04/07 04:02:16;;;;;;;;;;;;;;;13.30;100.00;101329.56;5101568;28;19922;-54
2023/04/07 04:04:42;;;;;;;;;;;;;;;13.22;100.00;101329.75;5101649;28;19924;-56
2023/04/07 04:07:09;;;;;;;;;;;;;;;13.21;100.00;101328.09;5100351;28;19920;-54
2023/04/07 04:09:42;;;;;;;;;;;;;;;13.13;100.00;101334.47;5099570;28;19919;-53
2023/04/07 04:12:08;;;;;;;;;;;;;;;13.13;100.00;101337.16;5110958;28;19916;-53
2023/04/07 04:14:41;;;;;;;;;;;;;;;13.05;100.00;101332.78;5136260;27;19998;-52
2023/04/07 04:17:08;;;;;;;;;;;;;;;13.06;100.00;101328.25;5105317;28;19919;-52
2023/04/07 04:19:39;;;;;;;;;;;;;;;12.93;100.00;101337.06;5104759;28;19938;-55
2023/04/07 04:22:12;;;;;;;;;;;;;;;12.99;100.00;101341.63;5101412;28;19915;-53
2023/04/07 04:24:47;;;;;;;;;;;;;;;13.09;100.00;101335.06;5101216;28;19956;-53
2023/04/07 04:27:12;;;;;;;;;;;;;;;12.92;100.00;101340.78;5118872;28;19935;-56
2023/04/07 04:29:39;;;;;;;;;;;;;;;12.72;100.00;101341.50;5100898;28;19920;-54
2023/04/07 04:32:07;;;;;;;;;;;;;;;12.64;100.00;101349.69;5130177;27;19917;-52
2023/04/07 04:34:33;;;;;;;;;;;;;;;12.51;100.00;101349.63;5114390;28;19924;-54
2023/04/07 04:36:59;;;;;;;;;;;;;;;12.95;100.00;101356.50;5119106;28;19949;-54
2023/04/07 04:39:25;;;;;;;;;;;;;;;13.05;100.00;101350.75;5131213;27;19920;-52
2023/04/07 04:41:50;;;;;;;;;;;;;;;12.75;100.00;101354.53;5117456;28;19944;-53
2023/04/07 04:44:16;;;;;;;;;;;;;;;13.01;100.00;101360.22;5130706;27;19961;-56
2023/04/07 04:46:43;;;;;;;;;;;;;;;13.05;100.00;101361.50;5121557;28;19950;-55
2023/04/07 04:49:08;;;;;;;;;;;;;;;12.84;100.00;101362.41;5135331;27;19920;-53
2023/04/07 04:51:35;;;;;;;;;;;;;;;12.75;100.00;101365.25;5099612;28;19927;-55
2023/04/07 04:54:08;;;;;;;;;;;;;;;12.95;100.00;101372.59;5131330;27;19924;-53
2023/04/07 04:56:36;;;;;;;;;;;;;;;12.76;100.00;101374.97;5100461;28;19916;-56
2023/04/07 04:59:03;;;;;;;;;;;;;;;13.03;100.00;101368.91;5132372;28;20527;-56
2023/04/07 05:01:40;;;;;;;;;;;;;;;13.10;100.00;101377.84;5097567;28;19973;-57
2023/04/07 05:04:09;;;;;;;;;;;;;;;12.90;100.00;101373.19;5098442;28;19940;-56
2023/04/07 05:06:35;;;;;;;;;;;;;;;13.01;100.00;101371.81;5132070;28;19920;-54
2023/04/07 05:09:06;;;;;;;;;;;;;;;13.22;100.00;101369.19;5133222;28;19916;-54
2023/04/07 05:11:40;;;;;;;;;;;;;;;13.33;100.00;101374.00;5120966;28;19920;-55
2023/04/07 05:14:05;;;;;;;;;;;;;;;13.37;100.00;101375.25;5142663;28;19953;-54
2023/04/07 05:16:30;;;;;;;;;;;;;;;13.20;100.00;101375.59;5100983;28;19950;-54
2023/04/07 05:18:56;;;;;;;;;;;;;;;13.12;100.00;101378.47;5101782;28;19916;-51
2023/04/07 05:21:23;;;;;;;;;;;;;;;13.02;100.00;101373.47;5101662;28;19916;-54
2023/04/07 05:23:52;;;;;;;;;;;;;;;13.29;100.00;101384.31;5101678;28;19959;-54
2023/04/07 05:26:20;;;;;;;;;;;;;;;13.04;100.00;101382.13;5108096;28;19994;-54
2023/04/07 05:28:47;;;;;;;;;;;;;;;13.08;100.00;101385.25;5134505;28;19939;-51
2023/04/07 05:31:17;;;;;;;;;;;;;;;13.19;100.00;101383.88;5102368;28;19959;-52
2023/04/07 05:33:45;;;;;;;;;;;;;;;13.28;100.00;101385.34;5117888;28;19971;-54
2023/04/07 05:36:10;;;;;;;;;;;;;;;13.33;100.00;101387.44;5135157;28;19924;-54
2023/04/07 05:38:39;;;;;;;;;;;;;;;13.07;100.00;101388.13;5100136;28;19916;-52
2023/04/07 05:41:11;;;;;;;;;;;;;;;12.58;100.00;101388.03;5100529;28;19924;-54
2023/04/07 05:43:37;;;;;;;;;;;;;;;12.91;100.00;101387.41;5101210;28;19915;-54
2023/04/07 05:46:03;;;;;;;;;;;;;;;13.10;100.00;101395.78;5102376;28;19920;-54
2023/04/07 05:48:30;;;;;;;;;;;;;;;13.05;100.00;101391.03;5123532;28;19912;-53
2023/04/07 05:50:56;;;;;;;;;;;;;;;13.11;100.00;101394.75;5144221;27;19916;-55
2023/04/07 05:53:22;;;;;;;;;;;;;;;13.05;100.00;101391.84;5101815;28;19952;-55
2023/04/07 05:55:47;;;;;;;;;;;;;;;12.66;100.00;101389.75;5103772;28;19926;-57
2023/04/07 05:58:22;;;;;;;;;;;;;;;12.87;100.00;101391.53;5106478;28;19916;-56
2023/04/07 06:00:51;;;;;;;;;;;;;;;13.04;100.00;101392.88;5118982;27;19982;-54
2023/04/07 06:03:17;;;;;;;;;;;;;;;13.06;100.00;101400.75;5136944;27;19927;-52
2023/04/07 06:06:08;;;;;;;;;;;;;;;12.91;100.00;101404.38;5136303;27;19952;-55
2023/04/07 06:08:34;;;;;;;;;;;;;;;12.85;100.00;101410.53;5122228;27;19916;-55
2023/04/07 06:11:00;;;;;;;;;;;;;;;12.97;100.00;101410.81;5104897;28;19931;-53
2023/04/07 06:13:26;;;;;;;;;;;;;;;13.07;100.00;101407.78;5127861;28;19916;-54
2023/04/07 06:15:53;;;;;;;;;;;;;;;13.03;100.00;101406.50;5120244;28;19920;-48
2023/04/07 06:18:19;;;;;;;;;;;;;;;12.97;100.00;101408.13;5107449;28;19920;-53
2023/04/07 06:20:45;;;;;;;;;;;;;;;13.06;100.00;101408.81;5122388;28;19984;-57
2023/04/07 06:23:10;;;;;;;;;;;;;;;13.22;100.00;101415.69;5102845;28;19956;-51
2023/04/07 06:25:35;;;;;;;;;;;;;;;13.08;100.00;101411.28;5136327;27;19920;-52
2023/04/07 06:28:01;;;;;;;;;;;;;;;13.31;100.00;101414.50;5122702;28;19916;-54
2023/04/07 06:30:26;;;;;;;;;;;;;;;13.37;100.00;101412.03;5122673;28;19920;-54
2023/04/07 06:32:52;;;;;;;;;;;;;;;13.54;100.00;101421.44;5102506;28;19915;-51
2023/04/07 06:35:17;;;;;;;;;;;;;;;13.38;100.00;101419.06;5102291;28;19923;-53
2023/04/07 06:37:43;;;;;;;;;;;;;;;13.60;100.00;101417.94;5103147;28;19921;-53
2023/04/07 06:40:08;;;;;;;;;;;;;;;13.76;100.00;101419.47;5122220;28;19983;-52
2023/04/07 06:42:34;;;;;;;;;;;;;;;13.67;100.00;101423.34;5122298;28;19916;-53
2023/04/07 06:45:14;;;;;;;;;;;;;;;13.90;100.00;101427.53;5101797;28;19935;-54
2023/04/07 06:47:40;;;;;;;;;;;;;;;13.78;100.00;101435.38;5122250;28;19965;-55
2023/04/07 06:50:05;;;;;;;;;;;;;;;13.94;100.00;101439.53;5118879;28;19992;-51
2023/04/07 06:52:31;;;;;;;;;;;;;;;13.57;100.00;101437.16;5119276;28;23801;-53
2023/04/07 06:54:56;;;;;;;;;;;;;;;13.84;100.00;101445.34;5122586;28;19938;-53
2023/04/07 06:57:21;;;;;;;;;;;;;;;13.96;100.00;101450.97;5121152;28;19923;-52
2023/04/07 06:59:46;;;;;;;;;;;;;;;14.03;100.00;101445.56;5118792;28;19979;-55
2023/04/07 07:02:12;;;;;;;;;;;;;;;14.09;100.00;101447.47;5117275;28;19916;-54
2023/04/07 07:04:37;;;;;;;;;;;;;;;13.85;100.00;101457.75;5119383;28;19934;-51
2023/04/07 07:07:03;;;;;;;;;;;;;;;14.03;100.00;101457.16;5119877;28;19916;-52
2023/04/07 07:09:29;;;;;;;;;;;;;;;13.95;100.00;101451.16;5117294;28;19943;-54
2023/04/07 07:11:54;;;;;;;;;;;;;;;13.95;100.00;101457.34;5115960;28;19916;-52
2023/04/07 07:14:20;;;;;;;;;;;;;;;14.00;100.00;101459.44;5119136;28;19957;-56
2023/04/07 07:16:45;;;;;;;;;;;;;;;14.03;100.00;101469.78;5119444;28;19924;-54
2023/04/07 07:19:11;;;;;;;;;;;;;;;14.34;100.00;101463.03;5116035;28;19991;-55
2023/04/07 07:21:36;;;;;;;;;;;;;;;14.36;100.00;101469.03;5116037;28;19924;-53
2023/04/07 07:24:02;;;;;;;;;;;;;;;14.40;100.00;101469.41;5118371;28;19916;-53
2023/04/07 07:26:28;;;;;;;;;;;;;;;14.25;100.00;101466.91;5119454;28;19995;-52
2023/04/07 07:28:53;;;;;;;;;;;;;;;13.97;100.00;101474.13;5117594;28;20363;-55
2023/04/07 07:31:18;;;;;;;;;;;;;;;14.05;100.00;101468.53;5119273;28;19920;-54
2023/04/07 07:33:44;;;;;;;;;;;;;;;14.36;100.00;101470.88;5104346;28;19951;-54
2023/04/07 07:36:10;;;;;;;;;;;;;;;14.13;100.00;101477.44;5120336;28;19927;-54
2023/04/07 07:38:36;;;;;;;;;;;;;;;14.34;100.00;101473.78;5116821;28;19922;-50
2023/04/07 07:41:02;;;;;;;;;;;;;;;14.34;100.00;101481.84;5115962;28;19916;-53
2023/04/07 07:43:27;;;;;;;;;;;;;;;14.49;100.00;101482.47;5119790;28;19924;-52
2023/04/07 07:45:53;;;;;;;;;;;;;;;14.71;100.00;101479.59;5119669;28;19931;-51
2023/04/07 07:48:18;;;;;;;;;;;;;;;14.82;100.00;101485.44;5117703;28;19923;-54
2023/04/07 07:50:44;;;;;;;;;;;;;;;14.27;100.00;101484.53;5115274;28;19931;-53
2023/04/07 07:53:09;;;;;;;;;;;;;;;14.61;100.00;101492.63;5122277;28;19919;-55
2023/04/07 07:55:35;;;;;;;;;;;;;;;14.66;100.00;101490.16;5100834;28;19927;-56
2023/04/07 07:58:00;;;;;;;;;;;;;;;14.62;100.00;101494.28;5118897;28;19916;-52
2023/04/07 08:00:25;;;;;;;;;;;;;;;14.63;100.00;101493.25;5119108;28;19916;-54
2023/04/07 08:02:51;;;;;;;;;;;;;;;14.54;100.00;101497.19;5115870;28;19947;-53
2023/04/07 08:05:16;;;;;;;;;;;;;;;14.67;100.00;101501.75;5117161;28;19920;-54
2023/04/07 08:07:42;;;;;;;;;;;;;;;14.41;100.00;101506.91;5122647;28;19916;-52
2023/04/07 08:10:07;;;;;;;;;;;;;;;14.84;100.00;101505.69;5116021;28;19916;-52
2023/04/07 08:12:33;;;;;;;;;;;;;;;14.81;100.00;101514.19;5118248;28;19915;-56
2023/04/07 08:14:58;;;;;;;;;;;;;;;14.62;100.00;101511.25;5115500;28;19957;-53
2023/04/07 08:17:24;;;;;;;;;;;;;;;14.60;100.00;101517.91;5120981;28;19916;-52
2023/04/07 08:19:49;;;;;;;;;;;;;;;14.52;100.00;101512.69;5121788;28;19919;-55
2023/04/07 08:22:14;;;;;;;;;;;;;;;14.10;100.00;101513.66;5121753;28;20021;-53
2023/04/07 08:24:40;;;;;;;;;;;;;;;14.24;100.00;101517.22;5118868;28;19978;-54
2023/04/07 08:27:05;;;;;;;;;;;;;;;14.36;100.00;101520.16;5116679;28;19921;-51
2023/04/07 08:29:30;;;;;;;;;;;;;;;13.99;100.00;101517.78;5119074;28;19918;-54
2023/04/07 08:31:56;;;;;;;;;;;;;;;14.39;100.00;101527.81;5115861;28;19915;-55
2023/04/07 08:34:21;;;;;;;;;;;;;;;14.39;100.00;101525.13;5116149;28;19923;-56
2023/04/07 08:36:47;;;;;;;;;;;;;;;14.45;100.00;101518.09;5116108;28;20411;-55
2023/04/07 08:39:12;;;;;;;;;;;;;;;14.71;100.00;101525.38;5115439;28;19978;-53
2023/04/07 08:41:39;;;;;;;;;;;;;;;14.80;100.00;101528.69;5114230;28;19916;-54
2023/04/07 08:44:05;;;;;;;;;;;;;;;15.10;100.00;101527.44;5117955;28;20295;-56
2023/04/07 08:46:32;;;;;;;;;;;;;;;14.95;100.00;101530.38;5121257;28;19928;-54
2023/04/07 08:48:59;;;;;;;;;;;;;;;14.83;100.00;101522.09;5119378;28;19916;-53
2023/04/07 08:51:27;;;;;;;;;;;;;;;14.56;100.00;101543.56;5120139;28;19928;-53
2023/04/07 08:53:53;;;;;;;;;;;;;;;14.23;100.00;101542.47;5119200;28;20064;-55
2023/04/07 08:56:20;;;;;;;;;;;;;;;14.68;100.00;101535.72;5117940;28;19916;-55
2023/04/07 08:58:46;;;;;;;;;;;;;;;14.84;100.00;101545.28;5118846;28;19923;-56
2023/04/07 09:01:12;;;;;;;;;;;;;;;15.14;100.00;101545.69;5119230;28;19916;-56
2023/04/07 09:03:38;;;;;;;;;;;;;;;14.58;100.00;101546.88;5124716;28;19916;-51
2023/04/07 09:06:03;;;;;;;;;;;;;;;14.70;100.00;101544.41;5117035;28;19938;-52
2023/04/07 09:08:29;;;;;;;;;;;;;;;14.92;100.00;101553.16;5119978;28;19922;-56
2023/04/07 09:10:55;;;;;;;;;;;;;;;14.86;100.00;101549.41;5120104;28;19916;-53
2023/04/07 09:13:21;;;;;;;;;;;;;;;14.66;100.00;101548.56;5120252;28;19924;-55
2023/04/07 09:15:46;;;;;;;;;;;;;;;14.85;100.00;101550.44;5118451;28;19922;-54
2023/04/07 09:18:13;;;;;;;;;;;;;;;14.37;100.00;101554.09;5118538;28;19927;-57
2023/04/07 09:20:53;;;;;;;;;;;;;;;14.58;100.00;101554.97;5120862;28;19916;-52
2023/04/07 09:23:30;;;;;;;;;;;;;;;14.32;100.00;101562.75;5122930;28;19942;-52
2023/04/07 09:25:58;;;;;;;;;;;;;;;14.41;100.00;101560.72;5121293;28;19920;-54
2023/04/07 09:28:24;;;;;;;;;;;;;;;14.74;100.00;101559.97;5122562;28;19916;-55
2023/04/07 09:30:53;;;;;;;;;;;;;;;14.97;100.00;101568.69;5121684;28;20000;-51
2023/04/07 09:33:28;;;;;;;;;;;;;;;14.88;100.00;101568.06;5125130;28;19916;-56
2023/04/07 09:35:54;;;;;;;;;;;;;;;14.85;100.00;101566.59;5118457;28;19969;-51
2023/04/07 09:38:20;;;;;;;;;;;;;;;14.89;100.00;101564.34;5121416;28;19920;-59
2023/04/07 09:40:47;;;;;;;;;;;;;;;14.57;100.00;101564.06;5123327;28;19991;-54
2023/04/07 09:43:19;;;;;;;;;;;;;;;14.64;100.00;101564.91;5119100;28;19916;-53
2023/04/07 09:45:44;;;;;;;;;;;;;;;15.04;100.00;101567.66;5120250;28;19920;-51
2023/04/07 09:48:19;;;;;;;;;;;;;;;15.05;100.00;101569.31;5123196;28;19930;-57
2023/04/07 09:50:48;;;;;;;;;;;;;;;14.83;100.00;101570.56;5121573;28;19916;-53
2023/04/07 09:53:14;;;;;;;;;;;;;;;14.65;100.00;101571.94;5119551;28;19943;-55
2023/04/07 09:55:40;;;;;;;;;;;;;;;14.56;100.00;101573.19;5122462;28;19916;-54
2023/04/07 09:58:06;;;;;;;;;;;;;;;14.91;100.00;101578.41;5123452;28;19983;-53
2023/04/07 10:00:31;;;;;;;;;;;;;;;15.12;100.00;101579.25;5121154;28;19916;-55
2023/04/07 10:02:57;;;;;;;;;;;;;;;15.65;100.00;101577.50;5120083;28;19916;-53
2023/04/07 10:05:24;;;;;;;;;;;;;;;15.38;100.00;101572.19;5121118;28;19920;-54
2023/04/07 10:07:49;;;;;;;;;;;;;;;15.77;100.00;101581.22;5120182;28;19923;-54
2023/04/07 10:10:15;;;;;;;;;;;;;;;16.20;100.00;101587.94;5118002;28;19943;-57
2023/04/07 10:12:41;;;;;;;;;;;;;;;15.05;100.00;101584.63;5124611;28;19916;-53
2023/04/07 10:15:07;;;;;;;;;;;;;;;15.24;100.00;101583.00;5127470;28;19958;-56
2023/04/07 10:17:35;;;;;;;;;;;;;;;15.68;100.00;101590.56;5120244;28;19920;-57
2023/04/07 10:20:01;;;;;;;;;;;;;;;15.23;100.00;101592.13;5121462;28;19920;-56
2023/04/07 10:22:27;;;;;;;;;;;;;;;15.49;100.00;101593.13;5121982;28;19976;-54
2023/04/07 10:24:57;;;;;;;;;;;;;;;15.60;100.00;101600.56;5122009;28;19920;-54
2023/04/07 10:27:29;;;;;;;;;;;;;;;15.04;100.00;101599.97;5124737;28;19923;-53
2023/04/07 10:29:57;;;;;;;;;;;;;;;15.30;100.00;101603.72;5121919;28;19916;-56
2023/04/07 10:32:22;;;;;;;;;;;;;;;15.61;100.00;101604.91;5119534;28;19916;-55
2023/04/07 10:34:53;;;;;;;;;;;;;;;15.21;100.00;101613.03;5128228;28;19938;-55
2023/04/07 10:37:22;;;;;;;;;;;;;;;15.52;100.00;101608.03;5119859;28;20010;-54
2023/04/07 10:39:48;;;;;;;;;;;;;;;15.60;100.00;101605.94;5120025;28;19924;-56
2023/04/07 10:42:33;;;;;;;;;;;;;;;15.27;100.00;101609.53;5122003;28;19924;-54
2023/04/07 10:45:00;;;;;;;;;;;;;;;14.99;100.00;101612.41;5121193;28;19961;-53
2023/04/07 10:47:26;;;;;;;;;;;;;;;15.03;100.00;101608.25;5120355;28;19916;-59
2023/04/07 10:50:10;;;;;;;;;;;;;;;15.27;100.00;101616.75;5115399;28;19920;-51
2023/04/07 10:52:36;;;;;;;;;;;;;;;15.53;100.00;101623.16;5121067;28;19987;-54
2023/04/07 10:55:20;;;;;;;;;;;;;;;15.81;100.00;101609.44;5119799;28;19916;-57
2023/04/07 10:58:05;;;;;;;;;;;;;;;15.72;100.00;101621.50;5105070;28;19926;-56
2023/04/07 11:00:31;;;;;;;;;;;;;;;15.59;100.00;101623.16;5117756;28;19923;-54
2023/04/07 11:02:56;;;;;;;;;;;;;;;15.84;100.00;101625.19;5119862;28;19915;-52
2023/04/07 11:05:22;;;;;;;;;;;;;;;15.18;100.00;101618.81;5117442;28;20007;-53
2023/04/07 11:07:49;;;;;;;;;;;;;;;15.49;100.00;101620.88;5118505;28;19944;-52
2023/04/07 11:10:15;;;;;;;;;;;;;;;15.39;100.00;101627.75;5117881;28;19916;-58
2023/04/07 11:12:42;;;;;;;;;;;;;;;15.61;100.00;101631.06;5121233;28;19927;-52
2023/04/07 11:15:17;;;;;;;;;;;;;;;15.22;100.00;101628.16;5118419;28;19924;-54
2023/04/07 11:17:43;;;;;;;;;;;;;;;15.32;100.00;101625.88;5118031;28;19916;-50
2023/04/07 11:20:09;;;;;;;;;;;;;;;14.92;100.00;101625.84;5121335;28;19923;-53
2023/04/07 11:22:36;;;;;;;;;;;;;;;15.42;100.00;101628.16;5120966;28;19922;-54
2023/04/07 11:25:01;;;;;;;;;;;;;;;15.33;100.00;101630.22;5112992;28;19954;-52
2023/04/07 11:27:27;;;;;;;;;;;;;;;15.12;100.00;101638.53;5118711;28;19915;-55
2023/04/07 11:29:53;;;;;;;;;;;;;;;14.96;100.00;101632.50;5119668;28;19916;-55
2023/04/07 11:32:23;;;;;;;;;;;;;;;15.13;100.00;101634.78;5122603;28;19991;-55
2023/04/07 11:34:49;;;;;;;;;;;;;;;15.24;100.00;101631.50;5114406;28;19916;-55
2023/04/07 11:37:18;;;;;;;;;;;;;;;14.99;100.00;101634.78;5116676;28;19984;-51
2023/04/07 11:39:46;;;;;;;;;;;;;;;15.15;100.00;101638.94;5122566;28;19979;-55
2023/04/07 11:42:12;;;;;;;;;;;;;;;15.24;100.00;101634.19;5118833;28;19991;-55
2023/04/07 11:44:44;;;;;;;;;;;;;;;15.14;100.00;101639.13;5121694;28;19915;-56
2023/04/07 11:47:10;;;;;;;;;;;;;;;15.19;100.00;101634.81;5120520;28;19920;-56
2023/04/07 11:49:43;;;;;;;;;;;;;;;15.40;100.00;101632.94;5123492;28;20054;-57
2023/04/07 11:52:08;;;;;;;;;;;;;;;15.19;100.00;101637.50;5112518;28;19930;-56
2023/04/07 11:54:45;;;;;;;;;;;;;;;14.86;100.00;101640.16;5115749;28;19916;-57
2023/04/07 11:57:11;;;;;;;;;;;;;;;14.39;100.00;101638.13;5119359;28;19923;-54
2023/04/07 11:59:37;;;;;;;;;;;;;;;14.65;100.00;101643.78;5113849;28;19984;-53
2023/04/07 12:02:02;;;;;;;;;;;;;;;15.06;100.00;101642.84;5115962;28;19916;-55
2023/04/07 12:04:28;;;;;;;;;;;;;;;15.25;100.00;101657.41;5114381;28;19916;-56
2023/04/07 12:06:53;;;;;;;;;;;;;;;15.30;100.00;101656.75;5117975;28;19947;-50
2023/04/07 12:09:26;;;;;;;;;;;;;;;14.95;100.00;101657.75;5120896;28;19938;-54
2023/04/07 12:11:51;;;;;;;;;;;;;;;15.25;100.00;101668.19;5116586;28;19923;-55
2023/04/07 12:14:16;;;;;;;;;;;;;;;15.09;100.00;101665.88;5095756;28;19916;-54
2023/04/07 12:16:42;;;;;;;;;;;;;;;15.14;100.00;101666.94;5113947;28;19915;-54
2023/04/07 12:19:07;;;;;;;;;;;;;;;15.24;100.00;101666.53;5116717;28;20373;-53
2023/04/07 12:21:33;;;;;;;;;;;;;;;15.29;100.00;101671.28;5114935;28;19975;-55
2023/04/07 12:23:58;;;;;;;;;;;;;;;15.20;100.00;101668.78;5123144;28;19916;-53
2023/04/07 12:26:24;;;;;;;;;;;;;;;15.34;100.00;101671.50;5101105;28;19946;-53
2023/04/07 12:28:50;;;;;;;;;;;;;;;15.02;100.00;101672.09;5119181;28;19916;-51